Time;durP1;ratioP1;P1;durP2;ratioP2;P2;SDS_P1;SDS_P2;PMS_P1;PMS_P2;Temp;Humidity;BMP_temperature;BMP_pressure;BME280_temperature;BME280_humidity;BME280_pressure;Samples;Min_cycle;Max_cycle;Signal;HPM_P1;HPM_P2
2021/01/17 00:05:49;;;;;;;20.48;8.50;;;;;;;-4.43;100.00;98629.31;4347419;81;43962;-85
2021/01/17 00:11:53;;;;;;;24.23;9.55;;;;;;;-4.53;100.00;98625.90;4377373;80;28551;-84
2021/01/17 00:17:55;;;;;;;23.50;8.45;;;;;;;-4.42;100.00;98613.91;4353686;81;43919;-84
2021/01/17 00:23:58;;;;;;;21.48;8.25;;;;;;;-4.39;100.00;98607.55;4390299;81;43936;-84
2021/01/17 00:30:00;;;;;;;19.87;8.25;;;;;;;-4.41;100.00;98612.12;4395749;81;43934;-82
2021/01/17 00:36:02;;;;;;;22.65;9.00;;;;;;;-4.39;100.00;98617.54;4397509;81;43933;-82
2021/01/17 00:42:14;;;;;;;22.20;9.60;;;;;;;-4.40;100.00;98609.33;4398875;81;43926;-83
2021/01/17 00:48:16;;;;;;;18.77;7.40;;;;;;;-4.34;100.00;98631.07;4397777;81;43914;-82
2021/01/17 00:54:18;;;;;;;26.87;11.55;;;;;;;-4.37;100.00;98651.53;4339084;81;43270;-81
2021/01/17 01:00:24;;;;;;;21.77;8.70;;;;;;;-4.78;100.00;98678.04;4317734;82;43971;-81
2021/01/17 01:06:40;;;;;;;17.48;7.30;;;;;;;-4.93;100.00;98681.58;4385131;79;84967;-82
2021/01/17 01:12:43;;;;;;;12.58;5.95;;;;;;;-5.00;100.00;98674.73;4292568;82;43235;-81
2021/01/17 01:18:45;;;;;;;10.98;4.85;;;;;;;-4.82;100.00;98671.41;4334728;81;43244;-82
2021/01/17 01:24:47;;;;;;;10.05;4.78;;;;;;;-4.84;100.00;98670.25;4361931;81;43236;-82
2021/01/17 01:30:50;;;;;;;6.92;2.95;;;;;;;-4.67;100.00;98675.25;4298405;81;41901;-82
2021/01/17 01:36:52;;;;;;;6.35;2.60;;;;;;;-4.74;100.00;98682.49;4291959;83;43396;-83
2021/01/17 01:42:54;;;;;;;6.78;2.55;;;;;;;-4.80;100.00;98683.42;4218671;84;42632;-82
2021/01/17 01:48:59;;;;;;;4.40;2.22;;;;;;;-5.02;100.00;98689.78;4243536;83;43772;-82
2021/01/17 01:55:03;;;;;;;6.60;3.05;;;;;;;-5.00;100.00;98691.78;4409149;80;42618;-80
2021/01/17 02:01:06;;;;;;;5.42;2.55;;;;;;;-5.02;100.00;98698.16;4305695;83;43407;-80
2021/01/17 02:07:16;;;;;;;6.67;2.92;;;;;;;-5.06;100.00;98703.66;4344413;81;41832;-80
2021/01/17 02:13:22;;;;;;;6.92;2.87;;;;;;;-5.19;100.00;98722.30;4379211;81;41883;-83
2021/01/17 02:19:30;;;;;;;7.95;4.03;;;;;;;-5.07;100.00;98736.08;4379075;81;42753;-82
2021/01/17 02:25:35;;;;;;;11.00;4.92;;;;;;;-5.73;100.00;98753.23;4143183;84;43269;-81
2021/01/17 02:31:40;;;;;;;10.95;4.65;;;;;;;-6.16;100.00;98750.77;4156883;85;43265;-82
2021/01/17 02:37:57;;;;;;;8.65;4.92;;;;;;;-6.33;100.00;98760.52;4325104;81;42705;-82
2021/01/17 02:44:01;;;;;;;12.63;5.30;;;;;;;-6.45;100.00;98767.14;4162778;84;43229;-81
2021/01/17 02:50:04;;;;;;;9.75;4.33;;;;;;;-6.62;100.00;98768.55;4162635;85;42777;-82
2021/01/17 02:56:10;;;;;;;10.90;4.47;;;;;;;-6.70;100.00;98781.42;4168503;83;43272;-83
2021/01/17 03:02:14;;;;;;;11.10;4.55;;;;;;;-7.10;100.00;98792.52;4231037;83;43227;-83
2021/01/17 03:08:17;;;;;;;10.77;5.33;;;;;;;-7.25;100.00;98786.28;4171809;84;28579;-84
2021/01/17 03:14:20;;;;;;;8.90;4.00;;;;;;;-7.61;100.00;98793.00;4197768;85;42723;-84
2021/01/17 03:20:22;;;;;;;9.45;4.00;;;;;;;-7.75;100.00;98803.21;4170069;85;42731;-84
2021/01/17 03:26:27;;;;;;;9.90;4.53;;;;;;;-7.87;100.00;98809.39;4197135;85;43225;-82
2021/01/17 03:32:29;;;;;;;9.48;3.65;;;;;;;-8.18;100.00;98826.91;4197650;84;28567;-83
2021/01/17 03:38:31;;;;;;;9.53;4.08;;;;;;;-8.32;100.00;98838.41;4198679;85;42722;-81
2021/01/17 03:44:33;;;;;;;7.25;3.33;;;;;;;-8.47;100.00;98840.84;4209594;85;42550;-83
2021/01/17 03:50:36;;;;;;;10.20;3.65;;;;;;;-8.54;100.00;98844.41;4210550;85;42956;-81
2021/01/17 03:56:37;;;;;;;7.45;3.47;;;;;;;-8.71;100.00;98846.47;4210294;84;42614;-81
2021/01/17 04:02:39;;;;;;;7.50;3.10;;;;;;;-8.99;100.00;98853.71;4216048;84;42538;-80
2021/01/17 04:08:43;;;;;;;8.05;3.42;;;;;;;-8.99;100.00;98852.41;4244136;84;42707;-81
2021/01/17 04:14:45;;;;;;;10.70;3.75;;;;;;;-9.33;100.00;98863.09;4243881;84;43220;-81
2021/01/17 04:20:48;;;;;;;8.48;3.12;;;;;;;-9.28;100.00;98869.64;4244155;84;42762;-81
2021/01/17 04:26:59;;;;;;;10.68;4.15;;;;;;;-9.22;100.00;98870.13;4243907;84;43271;-82
2021/01/17 04:33:01;;;;;;;11.43;4.12;;;;;;;-9.42;100.00;98869.30;4169986;85;43237;-80
2021/01/17 04:39:05;;;;;;;10.93;3.40;;;;;;;-9.43;100.00;98885.02;4170067;85;43214;-81
2021/01/17 04:45:10;;;;;;;9.57;3.10;;;;;;;-9.57;100.00;98901.63;4252417;82;28567;-80
2021/01/17 04:51:14;;;;;;;9.75;3.87;;;;;;;-9.51;100.00;98912.89;4316592;82;42713;-80
2021/01/17 04:57:50;;;;;;;10.15;4.00;;;;;;;-9.47;100.00;98923.94;4323821;81;28553;-81
2021/01/17 05:04:21;;;;;;;8.63;3.52;;;;;;;-9.26;100.00;98928.95;4370744;81;42764;-83
2021/01/17 05:10:34;;;;;;;9.10;4.20;;;;;;;-9.40;100.00;98938.20;4330606;81;42754;-83
2021/01/17 05:16:44;;;;;;;10.00;4.60;;;;;;;-9.07;100.00;98927.67;4380535;81;43239;-82
2021/01/17 05:22:48;;;;;;;11.63;3.87;;;;;;;-9.06;100.00;98944.96;4325794;81;43241;-82
2021/01/17 05:28:51;;;;;;;13.15;5.28;;;;;;;-8.97;100.00;98963.02;4323203;80;43242;-82
2021/01/17 05:34:53;;;;;;;11.15;4.55;;;;;;;-9.05;100.00;98968.77;4296120;83;43256;-82
2021/01/17 05:40:55;;;;;;;12.50;5.05;;;;;;;-9.08;100.00;98975.50;4329607;82;43218;-81
2021/01/17 05:47:06;;;;;;;11.75;4.95;;;;;;;-9.06;100.00;98984.50;4296204;83;43246;-81
2021/01/17 05:53:09;;;;;;;13.83;5.37;;;;;;;-9.20;100.00;99001.92;4331177;82;43908;-81
2021/01/17 05:59:11;;;;;;;14.10;5.47;;;;;;;-9.29;100.00;98999.95;4296308;83;43916;-81
2021/01/17 06:05:13;;;;;;;15.35;5.85;;;;;;;-9.24;100.00;98999.17;4327765;82;43928;-82
2021/01/17 06:11:19;;;;;;;14.90;4.83;;;;;;;-9.47;100.00;99021.11;4324467;82;28562;-80
2021/01/17 06:17:22;;;;;;;17.32;6.45;;;;;;;-9.47;100.00;99021.11;4237747;83;28554;-80
2021/01/17 06:23:25;;;;;;;20.25;6.97;;;;;;;-9.66;100.00;99022.79;4282266;82;43904;-80
2021/01/17 06:29:42;;;;;;;14.68;5.90;;;;;;;-9.52;100.00;99035.73;4231037;84;43953;-81
2021/01/17 06:35:46;;;;;;;15.90;6.05;;;;;;;-9.54;100.00;99039.37;4230701;84;47809;-80
2021/01/17 06:41:54;;;;;;;18.48;6.40;;;;;;;-9.39;100.00;99037.02;4230688;84;46814;-79
2021/01/17 06:47:55;;;;;;;17.55;6.50;;;;;;;-9.34;100.00;99051.52;4238902;84;43937;-81
2021/01/17 06:53:58;;;;;;;18.23;6.95;;;;;;;-9.48;100.00;99061.55;4238748;84;43940;-81
2021/01/17 07:00:00;;;;;;;16.67;6.20;;;;;;;-9.35;100.00;99068.91;4203406;83;43949;-83
2021/01/17 07:06:13;;;;;;;17.65;6.87;;;;;;;-9.24;100.00;99076.01;4211003;82;43918;-82
2021/01/17 07:12:35;;;;;;;15.98;6.70;;;;;;;-9.39;100.00;99086.98;4311921;82;43977;-82
2021/01/17 07:18:40;;;;;;;16.32;6.67;;;;;;;-9.28;100.00;99094.91;4316601;82;43932;-82
2021/01/17 07:24:45;;;;;;;17.27;6.90;;;;;;;-9.07;100.00;99111.33;4317176;82;43917;-84
2021/01/17 07:31:02;;;;;;;16.23;6.97;;;;;;;-9.07;100.00;99113.94;4316936;82;44049;-82
2021/01/17 07:37:08;;;;;;;17.60;6.83;;;;;;;-9.01;100.00;99113.50;4317673;82;43931;-82
2021/01/17 07:43:11;;;;;;;16.17;6.58;;;;;;;-8.49;100.00;99119.13;4317244;82;43953;-83
2021/01/17 07:49:16;;;;;;;19.35;7.55;;;;;;;-8.25;100.00;99130.93;4301850;82;43930;-81
2021/01/17 07:55:21;;;;;;;17.50;7.12;;;;;;;-8.24;100.00;99139.58;4244468;82;28549;-79
2021/01/17 08:01:40;;;;;;;18.60;6.50;;;;;;;-8.15;100.00;99138.92;4250461;82;43910;-82
2021/01/17 08:07:44;;;;;;;17.48;6.75;;;;;;;-7.80;100.00;99134.74;4181203;84;43951;-84
2021/01/17 08:13:47;;;;;;;16.93;7.25;;;;;;;-7.64;100.00;99136.61;4207647;84;43964;-79
2021/01/17 08:20:00;;;;;;;21.20;8.43;;;;;;;-8.10;100.00;99148.58;4202863;84;43949;-81
2021/01/17 08:26:03;;;;;;;19.30;7.67;;;;;;;-7.84;100.00;99148.48;4238638;83;43941;-80
2021/01/17 08:32:28;;;;;;;20.00;7.85;;;;;;;-7.97;100.00;99149.83;4230333;83;43931;-79
2021/01/17 08:38:33;;;;;;;;;;;;;;;-8.24;100.00;99157.38;4204480;84;28574;-80
2021/01/17 08:44:36;;;;;;;18.70;7.78;;;;;;;-7.87;100.00;99160.45;4171470;84;43959;-81
2021/01/17 08:50:38;;;;;;;17.67;7.30;;;;;;;-7.63;100.00;99177.91;4190138;84;43931;-79
2021/01/17 08:56:41;;;;;;;21.15;7.65;;;;;;;-7.59;100.00;99181.49;4168644;84;43943;-80
2021/01/17 09:02:45;;;;;;;20.83;8.20;;;;;;;-7.57;100.00;99203.59;4186752;84;28629;-80
2021/01/17 09:08:57;;;;;;;20.43;7.55;;;;;;;-7.18;100.00;99199.02;4247141;82;43924;-82
2021/01/17 09:15:00;;;;;;;19.52;7.85;;;;;;;-6.86;100.00;99207.55;4285566;82;44025;-82
2021/01/17 09:21:05;;;;;;;22.85;8.73;;;;;;;-6.80;100.00;99216.72;4197125;82;43959;-77
2021/01/17 09:27:09;;;;;;;18.90;8.05;;;;;;;-6.77;100.00;99222.17;4318764;81;44038;-79
2021/01/17 09:33:17;;;;;;;20.48;7.92;;;;;;;-6.59;100.00;99229.94;4285412;80;43914;-79
2021/01/17 09:39:32;;;;;;;20.80;8.23;;;;;;;-6.81;100.00;99239.05;4337642;80;34395;-81
2021/01/17 09:45:35;;;;;;;22.13;8.63;;;;;;;-6.39;100.00;99234.14;4328084;80;43919;-81
2021/01/17 09:51:40;;;;;;;20.12;9.00;;;;;;;-6.06;100.00;99246.87;4343332;80;43939;-82
2021/01/17 09:57:42;;;;;;;21.27;8.90;;;;;;;-5.74;100.00;99236.95;4343438;80;28593;-80
2021/01/17 10:03:47;;;;;;;26.25;10.28;;;;;;;-5.75;100.00;99238.39;4368499;80;43251;-84
2021/01/17 10:09:51;;;;;;;22.62;9.53;;;;;;;-5.63;100.00;99249.67;4258548;81;28592;-81
2021/01/17 10:15:55;;;;;;;27.00;10.65;;;;;;;-5.70;100.00;99256.38;4261445;81;43401;-81
2021/01/17 10:22:00;;;;;;;21.60;9.33;;;;;;;-5.56;100.00;99266.58;4200308;82;43935;-80
2021/01/17 10:28:08;;;;;;;28.42;11.55;;;;;;;-5.98;100.00;99268.53;4335685;80;43447;-78
2021/01/17 10:34:11;;;;;;;25.82;9.58;;;;;;;-6.62;100.00;99274.65;4329413;80;42882;-78
2021/01/17 10:40:14;;;;;;;25.57;9.60;;;;;;;-5.99;100.00;99272.08;4343893;80;43167;-77
2021/01/17 10:46:23;;;;;;;24.37;8.95;;;;;;;-5.76;100.00;99276.02;4335904;80;43998;-77
2021/01/17 10:52:29;;;;;;;19.17;8.18;;;;;;;-5.91;100.00;99273.62;4196760;84;44001;-79
2021/01/17 10:58:41;;;;;;;21.82;8.38;;;;;;;-5.40;100.00;99276.67;4188805;84;43946;-80
2021/01/17 11:04:43;;;;;;;22.62;9.53;;;;;;;-5.38;100.00;99284.42;4280002;82;43918;-79
2021/01/17 11:10:51;;;;;;;23.20;9.53;;;;;;;-5.24;100.00;99290.70;4250795;82;43952;-79
2021/01/17 11:16:54;;;;;;;22.35;9.23;;;;;;;-5.30;100.00;99291.20;4191124;84;43958;-76
2021/01/17 11:23:05;;;;;;;21.48;9.28;;;;;;;-5.62;100.00;99287.55;4307705;81;44025;-74
2021/01/17 11:29:16;;;;;;;21.37;8.48;;;;;;;-5.70;100.00;99283.38;4324264;81;44234;-74
2021/01/17 11:35:25;;;;;;;24.23;9.23;;;;;;;-5.58;100.00;99280.28;4333889;81;43967;-74
2021/01/17 11:41:41;;;;;;;22.80;9.25;;;;;;;-5.51;100.00;99278.01;4330167;81;43931;-74
2021/01/17 11:47:44;;;;;;;24.30;9.55;;;;;;;-5.42;100.00;99277.28;4344376;81;44043;-75
2021/01/17 11:53:47;;;;;;;18.42;8.88;;;;;;;-5.38;100.00;99275.25;4322500;81;43956;-75
2021/01/17 11:59:49;;;;;;;19.55;8.15;;;;;;;-5.90;100.00;99268.75;4309639;81;44327;-76
2021/01/17 12:06:05;;;;;;;20.85;8.40;;;;;;;-5.48;100.00;99273.83;4330195;81;43953;-76
2021/01/17 12:12:14;;;;;;;22.48;8.93;;;;;;;-5.70;100.00;99279.95;4315956;81;43979;-74
2021/01/17 12:18:16;;;;;;;16.57;6.15;;;;;;;-5.57;100.00;99274.09;4340100;81;43961;-75
2021/01/17 12:24:19;;;;;;;22.15;8.93;;;;;;;-5.67;100.00;99281.01;4319763;81;43970;-73
2021/01/17 12:30:22;;;;;;;20.32;7.67;;;;;;;-5.88;100.00;99284.34;4318721;81;44250;-77
2021/01/17 12:36:28;;;;;;;19.80;8.10;;;;;;;-6.03;100.00;99292.94;4327943;81;43982;-74
2021/01/17 12:42:30;;;;;;;13.80;5.95;;;;;;;-5.64;100.00;99286.00;4320904;81;43935;-74
2021/01/17 12:48:34;;;;;;;12.13;5.37;;;;;;;-5.70;100.00;99294.36;4320674;81;43247;-75
2021/01/17 12:54:36;;;;;;;12.03;5.08;;;;;;;-5.71;100.00;99303.98;4327692;81;43296;-76
2021/01/17 13:00:39;;;;;;;15.95;6.40;;;;;;;-6.07;100.00;99318.52;4339160;81;43934;-74
2021/01/17 13:06:41;;;;;;;13.22;6.05;;;;;;;-6.18;100.00;99323.28;4340842;81;43956;-75
2021/01/17 13:12:44;;;;;;;13.93;6.33;;;;;;;-6.07;100.00;99325.56;4335763;80;43950;-75
2021/01/17 13:18:47;;;;;;;17.32;6.78;;;;;;;-6.33;100.00;99332.27;4328663;80;43958;-75
2021/01/17 13:24:50;;;;;;;19.60;7.40;;;;;;;-6.23;100.00;99343.72;4328878;80;28544;-74
2021/01/17 13:30:53;;;;;;;16.20;6.97;;;;;;;-6.04;100.00;99341.02;4324471;80;43934;-74
2021/01/17 13:36:56;;;;;;;18.92;7.17;;;;;;;-6.20;100.00;99342.17;4234152;82;43937;-74
2021/01/17 13:42:58;;;;;;;17.20;7.22;;;;;;;-6.28;100.00;99339.78;4166178;83;44033;-79
2021/01/17 13:49:00;;;;;;;20.90;8.18;;;;;;;-6.39;100.00;99345.34;4196383;83;44018;-79
2021/01/17 13:55:04;;;;;;;17.90;7.53;;;;;;;-6.39;100.00;99350.58;4180110;84;43966;-77
2021/01/17 14:01:06;;;;;;;18.40;6.75;;;;;;;-6.66;100.00;99366.53;4184463;84;43919;-78
2021/01/17 14:07:11;;;;;;;17.80;7.87;;;;;;;-6.75;100.00;99366.74;4208987;82;44043;-78
2021/01/17 14:13:14;;;;;;;17.02;7.12;;;;;;;-6.77;100.00;99375.15;4255375;82;28544;-81
2021/01/17 14:19:16;;;;;;;18.20;7.42;;;;;;;-6.80;100.00;99387.14;4256531;82;44005;-80
2021/01/17 14:25:20;;;;;;;17.77;8.08;;;;;;;-6.64;100.00;99389.02;4302379;82;43976;-79
2021/01/17 14:31:26;;;;;;;24.23;7.42;;;;;;;-6.72;100.00;99393.52;4271369;82;43956;-78
2021/01/17 14:37:28;;;;;;;20.10;8.03;;;;;;;-6.86;100.00;99401.50;4245874;82;43957;-79
2021/01/17 14:43:30;;;;;;;25.70;8.20;;;;;;;-6.94;100.00;99397.28;4266340;82;43512;-80
2021/01/17 14:49:32;;;;;;;25.80;8.85;;;;;;;-7.03;100.00;99402.25;4267033;82;43064;-79
2021/01/17 14:55:35;;;;;;;17.65;6.33;;;;;;;-7.03;100.00;99402.25;4264567;82;43912;-76
2021/01/17 15:01:38;;;;;;;19.40;7.58;;;;;;;-6.73;100.00;99406.69;4264689;82;43953;-77
2021/01/17 15:07:41;;;;;;;20.00;8.35;;;;;;;-6.75;100.00;99406.78;4265900;82;43958;-77
2021/01/17 15:13:53;;;;;;;19.48;8.28;;;;;;;-7.10;100.00;99404.08;4273337;82;43985;-80
2021/01/17 15:19:56;;;;;;;24.57;9.40;;;;;;;-7.16;100.00;99415.34;4265122;82;43940;-81
2021/01/17 15:25:59;;;;;;;21.70;8.75;;;;;;;-7.36;100.00;99417.20;4262820;82;43965;-81
2021/01/17 15:32:04;;;;;;;25.45;10.58;;;;;;;-7.22;100.00;99420.98;4277590;82;43612;-80
2021/01/17 15:38:06;;;;;;;23.02;9.45;;;;;;;-7.12;100.00;99431.64;4256722;82;43961;-81
2021/01/17 15:44:08;;;;;;;32.63;11.38;;;;;;;-7.36;100.00;99436.31;4267768;82;43459;-81
2021/01/17 15:50:12;;;;;;;30.55;10.80;;;;;;;-7.65;100.00;99444.39;4275559;82;43397;-79
2021/01/17 15:56:14;;;;;;;28.45;10.40;;;;;;;-7.58;100.00;99441.70;4281503;82;43478;-79
2021/01/17 16:02:17;;;;;;;24.63;9.75;;;;;;;-7.74;100.00;99452.36;4261785;82;44226;-80
2021/01/17 16:08:20;;;;;;;28.67;10.85;;;;;;;-7.57;100.00;99453.00;4265539;82;43464;-78
2021/01/17 16:14:22;;;;;;;43.20;15.50;;;;;;;-7.51;100.00;99464.32;4270126;82;44495;-78
2021/01/17 16:20:24;;;;;;;48.58;16.77;;;;;;;-7.86;100.00;99471.00;4270557;82;43792;-78
2021/01/17 16:26:26;;;;;;;51.25;18.57;;;;;;;-8.32;100.00;99481.38;4265968;82;43313;-77
2021/01/17 16:32:29;;;;;;;51.42;16.97;;;;;;;-8.35;100.00;99488.08;4261719;82;43736;-77
2021/01/17 16:38:32;;;;;;;46.18;15.80;;;;;;;-8.26;100.00;99493.19;4254885;82;43744;-77
2021/01/17 16:44:35;;;;;;;41.28;14.63;;;;;;;-8.20;100.00;99497.98;4254576;82;44476;-77
2021/01/17 16:50:38;;;;;;;45.95;16.15;;;;;;;-8.30;100.00;99502.12;4264957;82;43663;-77
2021/01/17 16:56:40;;;;;;;44.08;16.35;;;;;;;-8.63;100.00;99518.56;4251256;82;43678;-76
2021/01/17 17:02:50;;;;;;;53.80;17.35;;;;;;;-8.80;100.00;99522.20;4272599;82;44079;-77
2021/01/17 17:08:53;;;;;;;45.30;15.10;;;;;;;-8.78;100.00;99528.63;4241867;82;44853;-77
2021/01/17 17:14:55;;;;;;;43.30;14.50;;;;;;;-8.74;100.00;99528.83;4208880;84;44495;-76
2021/01/17 17:20:57;;;;;;;46.33;15.25;;;;;;;-8.46;100.00;99533.12;4190053;84;43638;-77
2021/01/17 17:26:59;;;;;;;40.75;15.68;;;;;;;-8.84;100.00;99539.82;4248365;82;44466;-76
2021/01/17 17:33:01;;;;;;;39.13;13.55;;;;;;;-8.75;100.00;99538.41;4235148;82;44482;-76
2021/01/17 17:39:06;;;;;;;43.95;14.98;;;;;;;-8.67;100.00;99539.22;4170859;84;44443;-77
2021/01/17 17:45:09;;;;;;;36.83;14.43;;;;;;;-8.44;100.00;99557.78;4243091;83;44464;-76
2021/01/17 17:51:11;;;;;;;40.43;14.05;;;;;;;-8.40;100.00;99567.92;4243531;82;44486;-81
2021/01/17 17:57:13;;;;;;;38.35;14.47;;;;;;;-8.34;100.00;99562.78;4161532;84;44493;-81
2021/01/17 18:03:16;;;;;;;38.98;13.60;;;;;;;-8.22;100.00;99564.27;4153050;85;44498;-83
2021/01/17 18:09:18;;;;;;;42.40;14.50;;;;;;;-8.43;100.00;99575.13;4223015;83;44450;-77
2021/01/17 18:15:20;;;;;;;37.95;14.45;;;;;;;-8.44;100.00;99587.31;4247870;82;44475;-75
2021/01/17 18:21:22;;;;;;;48.05;18.02;;;;;;;-8.64;100.00;99595.11;4196267;84;43772;-77
2021/01/17 18:27:24;;;;;;;47.60;15.35;;;;;;;-8.66;100.00;99602.65;4332001;81;43762;-75
2021/01/17 18:33:35;;;;;;;43.17;15.80;;;;;;;-8.79;100.00;99579.09;4347041;81;44450;-76
2021/01/17 18:39:37;;;;;;;49.93;15.98;;;;;;;-8.56;100.00;99556.83;4333186;80;43745;-77
2021/01/17 18:45:39;;;;;;;38.63;14.95;;;;;;;-8.86;100.00;99548.66;4327394;81;44461;-77
2021/01/17 18:51:41;;;;;;;42.15;14.30;;;;;;;-8.71;100.00;99554.70;4339480;80;44484;-78
2021/01/17 18:57:43;;;;;;;38.78;14.95;;;;;;;-8.37;100.00;99559.56;4188251;84;44482;-79
2021/01/17 19:03:45;;;;;;;45.30;14.35;;;;;;;-8.57;100.00;99571.62;4195399;84;44463;-78
2021/01/17 19:09:47;;;;;;;43.78;14.90;;;;;;;-8.60;100.00;99559.23;4170192;84;44471;-79
2021/01/17 19:15:51;;;;;;;39.38;14.03;;;;;;;-8.57;100.00;99575.53;4201122;84;44467;-77
2021/01/17 19:21:56;;;;;;;41.73;14.53;;;;;;;-8.62;100.00;99578.91;4200291;84;44489;-82
2021/01/17 19:27:58;;;;;;;46.18;15.30;;;;;;;-8.80;100.00;99582.15;4347948;80;43660;-82
2021/01/17 19:34:00;;;;;;;44.70;14.93;;;;;;;-8.95;100.00;99583.95;4239251;82;44518;-77
2021/01/17 19:40:06;;;;;;;46.73;15.90;;;;;;;-8.88;100.00;99598.26;4176801;83;28642;-81
2021/01/17 19:46:08;;;;;;;42.00;13.72;;;;;;;-8.98;100.00;99603.20;4195115;84;44458;-80
2021/01/17 19:52:11;;;;;;;41.08;15.15;;;;;;;-8.73;100.00;99610.83;4202111;84;44439;-79
2021/01/17 19:58:13;;;;;;;41.20;14.85;;;;;;;-8.85;100.00;99604.61;4191851;84;44443;-77
2021/01/17 20:04:15;;;;;;;38.92;14.75;;;;;;;-8.49;100.00;99590.66;4174623;84;44439;-80
2021/01/17 20:10:17;;;;;;;43.98;16.42;;;;;;;-8.70;100.00;99591.56;4222609;82;44437;-77
2021/01/17 20:16:20;;;;;;;46.88;16.17;;;;;;;-8.80;100.00;99604.30;4270803;82;43770;-78
2021/01/17 20:22:22;;;;;;;40.48;14.28;;;;;;;-8.73;100.00;99612.14;4234024;82;44464;-76
2021/01/17 20:28:25;;;;;;;47.20;15.63;;;;;;;-8.74;100.00;99607.03;4223588;82;43765;-76
2021/01/17 20:34:27;;;;;;;44.55;16.62;;;;;;;-8.86;100.00;99611.21;4328249;81;44424;-75
2021/01/17 20:40:29;;;;;;;43.78;15.93;;;;;;;-8.70;100.00;99619.77;4323306;81;44491;-75
2021/01/17 20:46:32;;;;;;;41.90;15.55;;;;;;;-8.95;100.00;99611.31;4347134;81;44523;-76
2021/01/17 20:52:36;;;;;;;50.40;17.23;;;;;;;-8.55;100.00;99610.65;4326468;81;43774;-79
2021/01/17 20:58:39;;;;;;;55.87;17.67;;;;;;;-8.67;100.00;99625.27;4202409;84;28574;-76
2021/01/17 21:04:42;;;;;;;47.43;16.30;;;;;;;-8.63;100.00;99625.92;4197383;83;28537;-76
2021/01/17 21:10:44;;;;;;;48.98;17.02;;;;;;;-8.58;100.00;99636.92;4266426;81;43782;-77
2021/01/17 21:16:46;;;;;;;39.63;14.58;;;;;;;-8.62;100.00;99634.96;4231975;82;44452;-77
2021/01/17 21:22:51;;;;;;;51.53;17.67;;;;;;;-8.66;100.00;99646.97;4196950;84;28550;-77
2021/01/17 21:28:53;;;;;;;47.43;16.32;;;;;;;-8.67;100.00;99635.69;4189313;84;43792;-75
2021/01/17 21:34:55;;;;;;;50.95;17.45;;;;;;;-8.72;100.00;99636.45;4201509;82;43837;-74
2021/01/17 21:40:57;;;;;;;48.10;16.57;;;;;;;-8.80;100.00;99636.89;4262356;81;44059;-74
2021/01/17 21:47:00;;;;;;;37.85;14.05;;;;;;;-8.65;100.00;99637.73;4211640;83;44466;-75
2021/01/17 21:53:03;;;;;;;48.73;16.80;;;;;;;-8.46;100.00;99648.33;4228146;82;43799;-79
2021/01/17 21:59:05;;;;;;;47.93;16.85;;;;;;;-8.56;100.00;99656.73;4223706;83;43750;-77
2021/01/17 22:05:10;;;;;;;53.63;17.12;;;;;;;-8.91;100.00;99665.36;4210928;83;44087;-78
2021/01/17 22:11:14;;;;;;;;;;;;;;;-8.61;100.00;99659.25;4229804;82;28550;-76
2021/01/17 22:17:16;;;;;;;52.03;18.07;;;;;;;-8.84;100.00;99668.84;4186757;83;34358;-77
2021/01/17 22:23:18;;;;;;;52.58;18.42;;;;;;;-8.49;100.00;99654.56;4183502;83;44067;-78
2021/01/17 22:29:21;;;;;;;58.50;19.10;;;;;;;-8.54;100.00;99655.34;4197988;84;44112;-77
2021/01/17 22:35:23;;;;;;;57.15;18.60;;;;;;;-8.72;100.00;99658.13;4191242;84;44085;-76
2021/01/17 22:41:27;;;;;;;59.75;20.35;;;;;;;-8.65;100.00;99647.34;4189480;84;28601;-76
2021/01/17 22:47:29;;;;;;;59.58;20.52;;;;;;;-8.44;100.00;99641.23;4201032;83;44144;-76
2021/01/17 22:53:31;;;;;;;56.77;20.20;;;;;;;-8.60;100.00;99651.80;4191516;84;44116;-75
2021/01/17 22:59:33;;;;;;;63.95;20.97;;;;;;;-8.75;100.00;99649.65;4198642;83;44450;-74
2021/01/17 23:05:35;;;;;;;81.30;26.52;;;;;;;-8.86;100.00;99645.91;4183715;84;43426;-75
2021/01/17 23:11:37;;;;;;;92.42;30.27;;;;;;;-8.68;100.00;99650.97;4200240;84;44087;-77
2021/01/17 23:17:39;;;;;;;81.37;25.35;;;;;;;-9.09;100.00;99659.02;4197013;83;44454;-76
2021/01/17 23:23:42;;;;;;;85.38;26.73;;;;;;;-8.87;100.00;99648.63;4193757;83;42764;-76
2021/01/17 23:29:44;;;;;;;77.17;24.55;;;;;;;-8.85;100.00;99658.05;4173548;84;44490;-75
2021/01/17 23:35:47;;;;;;;74.60;23.00;;;;;;;-8.96;100.00;99646.94;4228048;83;44118;-75
2021/01/17 23:41:49;;;;;;;67.58;22.30;;;;;;;-8.92;100.00;99645.00;4166988;84;43881;-76
2021/01/17 23:47:56;;;;;;;65.70;19.73;;;;;;;-8.92;100.00;99646.30;4222332;82;44435;-76
2021/01/17 23:53:58;;;;;;;60.73;20.43;;;;;;;-8.98;100.00;99646.20;4177401;84;44104;-75
